createdAt,value
2018-05-06T00:02:09.851Z,8.77
2018-05-06T00:04:35.579Z,8.75
2018-05-06T00:07:01.320Z,8.69
2018-05-06T00:09:27.065Z,8.73
2018-05-06T00:11:52.807Z,8.72
2018-05-06T00:14:18.548Z,8.63
2018-05-06T00:16:44.288Z,8.61
2018-05-06T00:19:10.029Z,8.49
2018-05-06T00:21:35.772Z,8.48
2018-05-06T00:24:01.516Z,8.37
2018-05-06T00:26:27.285Z,8.33
2018-05-06T00:28:53.043Z,8.32
2018-05-06T00:31:18.785Z,8.28
2018-05-06T00:33:44.536Z,8.24
2018-05-06T00:36:10.277Z,8.33
2018-05-06T00:38:36.016Z,8.27
2018-05-06T00:41:01.774Z,8.37
2018-05-06T00:43:27.512Z,8.35
2018-05-06T00:45:53.269Z,8.35
2018-05-06T00:48:19.011Z,8.24
2018-05-06T00:50:44.741Z,8.18
2018-05-06T00:53:10.476Z,8.13
2018-05-06T00:55:36.200Z,8.15
2018-05-06T00:58:01.939Z,8.15
2018-05-06T01:00:27.672Z,8.11
2018-05-06T01:02:53.413Z,8.09
2018-05-06T01:05:19.168Z,8.02
2018-05-06T01:07:44.913Z,8.01
2018-05-06T01:10:10.643Z,8.01
2018-05-06T01:12:36.378Z,8.10
2018-05-06T01:15:02.122Z,8.03
2018-05-06T01:17:27.863Z,7.99
2018-05-06T01:19:53.597Z,7.89
2018-05-06T01:22:19.352Z,7.88
2018-05-06T01:24:45.077Z,7.86
2018-05-06T01:27:10.803Z,7.79
2018-05-06T01:29:36.556Z,7.86
2018-05-06T01:32:02.324Z,7.88
2018-05-06T01:34:28.073Z,7.78
2018-05-06T01:36:53.795Z,7.71
2018-05-06T01:39:19.529Z,7.79
2018-05-06T01:41:45.273Z,7.74
2018-05-06T01:44:11.013Z,7.77
2018-05-06T01:46:36.764Z,7.67
2018-05-06T01:49:02.527Z,7.60
2018-05-06T01:51:28.256Z,7.53
2018-05-06T01:53:53.991Z,7.45
2018-05-06T01:56:19.729Z,7.51
2018-05-06T01:58:45.484Z,7.45
2018-05-06T02:01:11.228Z,7.46
2018-05-06T02:03:36.972Z,7.45
2018-05-06T02:06:02.713Z,7.41
2018-05-06T02:08:28.463Z,7.38
2018-05-06T02:10:54.192Z,7.50
2018-05-06T02:13:19.927Z,7.39
2018-05-06T02:15:45.680Z,7.30
2018-05-06T02:18:11.434Z,7.26
2018-05-06T02:20:37.176Z,7.25
2018-05-06T02:23:02.921Z,7.28
2018-05-06T02:25:28.657Z,7.24
2018-05-06T02:27:54.412Z,7.31
2018-05-06T02:30:20.144Z,7.32
2018-05-06T02:32:45.905Z,7.22
2018-05-06T02:35:11.640Z,7.16
2018-05-06T02:37:37.397Z,7.15
2018-05-06T02:40:03.132Z,7.14
2018-05-06T02:42:28.873Z,7.19
2018-05-06T02:44:54.609Z,7.13
2018-05-06T02:47:20.348Z,7.14
2018-05-06T02:49:46.089Z,6.99
2018-05-06T02:52:11.841Z,6.86
2018-05-06T02:54:37.603Z,6.86
2018-05-06T02:57:03.343Z,6.86
2018-05-06T02:59:29.107Z,6.76
2018-05-06T03:01:54.858Z,6.75
2018-05-06T03:04:20.605Z,6.91
2018-05-06T03:06:46.340Z,6.89
2018-05-06T03:09:12.080Z,7.00
2018-05-06T03:11:37.817Z,6.78
2018-05-06T03:14:03.580Z,6.82
2018-05-06T03:16:29.344Z,6.84
2018-05-06T03:18:55.110Z,6.95
2018-05-06T03:21:20.844Z,6.85
2018-05-06T03:23:46.592Z,6.83
2018-05-06T03:26:12.332Z,6.82
2018-05-06T03:28:38.072Z,6.71
2018-05-06T03:31:03.796Z,6.74
2018-05-06T03:33:29.532Z,6.74
2018-05-06T03:35:55.286Z,6.68
2018-05-06T03:38:21.028Z,6.70
2018-05-06T03:40:46.758Z,6.75
2018-05-06T03:43:12.506Z,6.73
2018-05-06T03:45:38.239Z,6.71
2018-05-06T03:48:03.981Z,6.78
2018-05-06T03:50:29.723Z,6.75
2018-05-06T03:52:55.455Z,6.63
2018-05-06T03:55:21.197Z,6.56
2018-05-06T03:57:59.243Z,6.60
2018-05-06T04:00:37.233Z,6.60
2018-05-06T04:03:02.972Z,6.64
2018-05-06T04:05:28.724Z,6.66
2018-05-06T04:07:54.469Z,6.68
2018-05-06T04:10:20.211Z,6.50
2018-05-06T04:12:45.944Z,6.58
2018-05-06T04:15:12.482Z,6.69
2018-05-06T04:17:38.221Z,6.71
2018-05-06T04:20:03.981Z,6.79
2018-05-06T04:22:29.733Z,6.86
2018-05-06T04:24:55.472Z,6.86
2018-05-06T04:27:21.212Z,6.85
2018-05-06T04:29:46.954Z,6.96
2018-05-06T04:32:12.680Z,7.05
2018-05-06T04:34:38.412Z,7.20
2018-05-06T04:37:04.159Z,7.12
2018-05-06T04:39:29.907Z,7.18
2018-05-06T04:41:55.641Z,7.39
2018-05-06T04:44:21.446Z,7.70
2018-05-06T04:46:47.144Z,7.86
2018-05-06T04:49:12.889Z,8.04
2018-05-06T04:51:38.624Z,8.12
2018-05-06T04:54:04.375Z,8.05
2018-05-06T04:56:30.116Z,8.04
2018-05-06T04:58:55.863Z,8.09
2018-05-06T05:01:21.619Z,8.33
2018-05-06T05:03:47.350Z,8.48
2018-05-06T05:06:13.096Z,8.65
2018-05-06T05:08:38.876Z,8.81
2018-05-06T05:11:04.640Z,8.93
2018-05-06T05:13:30.384Z,9.02
2018-05-06T05:15:56.136Z,9.16
2018-05-06T05:18:21.876Z,9.16
2018-05-06T05:20:47.681Z,9.59
2018-05-06T05:23:13.387Z,9.77
2018-05-06T05:25:39.148Z,9.79
2018-05-06T05:28:04.896Z,9.91
2018-05-06T05:30:30.639Z,9.86
2018-05-06T05:32:56.384Z,10.48
2018-05-06T05:35:22.133Z,10.23
2018-05-06T05:37:47.880Z,10.43
2018-05-06T05:40:13.624Z,10.75
2018-05-06T05:42:39.360Z,10.92
2018-05-06T05:45:05.120Z,10.95
2018-05-06T05:47:30.855Z,10.98
2018-05-06T05:49:56.627Z,11.24
2018-05-06T05:52:22.371Z,11.27
2018-05-06T05:54:48.113Z,11.68
2018-05-06T05:57:13.873Z,11.92
2018-05-06T05:59:39.634Z,12.09
2018-05-06T06:02:05.376Z,12.36
2018-05-06T06:04:31.125Z,12.13
2018-05-06T06:06:56.889Z,12.19
2018-05-06T06:09:22.624Z,12.23
2018-05-06T06:11:48.367Z,12.30
2018-05-06T06:14:14.116Z,12.57
2018-05-06T06:16:39.861Z,12.96
2018-05-06T06:19:05.597Z,13.03
2018-05-06T06:21:31.341Z,12.98
2018-05-06T06:23:57.076Z,13.03
2018-05-06T06:26:22.829Z,13.07
2018-05-06T06:28:48.572Z,13.22
2018-05-06T06:31:14.311Z,13.47
2018-05-06T06:33:40.053Z,13.45
2018-05-06T06:36:05.807Z,13.71
2018-05-06T06:38:31.538Z,13.64
2018-05-06T06:40:57.271Z,14.09
2018-05-06T06:43:22.992Z,14.29
2018-05-06T06:45:48.727Z,14.31
2018-05-06T06:48:14.461Z,14.32
2018-05-06T06:50:40.212Z,14.48
2018-05-06T06:53:05.959Z,14.85
2018-05-06T06:55:31.706Z,14.73
2018-05-06T06:57:57.444Z,14.50
2018-05-06T07:00:23.195Z,14.78
2018-05-06T07:02:48.933Z,15.21
2018-05-06T07:05:14.680Z,15.31
2018-05-06T07:07:40.407Z,15.48
2018-05-06T07:10:06.159Z,15.34
2018-05-06T07:12:31.906Z,15.98
2018-05-06T07:14:57.640Z,15.61
2018-05-06T07:17:23.381Z,15.58
2018-05-06T07:19:49.117Z,15.09
2018-05-06T07:22:14.868Z,15.66
2018-05-06T07:24:40.678Z,15.87
2018-05-06T07:27:06.356Z,16.04
2018-05-06T07:29:32.104Z,16.48
2018-05-06T07:31:57.847Z,16.35
2018-05-06T07:34:23.580Z,16.29
2018-05-06T07:36:49.333Z,17.13
2018-05-06T07:39:15.068Z,17.50
2018-05-06T07:41:40.799Z,17.95
2018-05-06T07:44:06.538Z,18.03
2018-05-06T07:46:32.289Z,18.23
2018-05-06T07:48:58.097Z,18.36
2018-05-06T07:51:23.763Z,18.18
2018-05-06T07:53:49.491Z,18.54
2018-05-06T07:56:15.234Z,18.44
2018-05-06T07:58:40.977Z,18.61
2018-05-06T08:01:06.740Z,18.44
2018-05-06T08:03:32.465Z,18.70
2018-05-06T08:05:58.209Z,18.91
2018-05-06T08:08:23.937Z,19.32
2018-05-06T08:10:49.705Z,19.60
2018-05-06T08:13:15.432Z,19.61
2018-05-06T08:15:41.185Z,19.52
2018-05-06T08:18:06.920Z,19.79
2018-05-06T08:20:32.653Z,19.64
2018-05-06T08:22:58.391Z,19.93
2018-05-06T08:25:24.125Z,19.75
2018-05-06T08:27:49.873Z,19.47
2018-05-06T08:30:15.615Z,19.60
2018-05-06T08:32:41.349Z,19.80
2018-05-06T08:35:07.074Z,20.13
2018-05-06T08:37:32.900Z,20.12
2018-05-06T08:39:58.565Z,20.11
2018-05-06T08:42:24.304Z,20.17
2018-05-06T08:44:50.025Z,20.66
2018-05-06T08:47:15.761Z,20.72
2018-05-06T08:49:41.504Z,20.60
2018-05-06T08:52:07.248Z,20.63
2018-05-06T08:54:32.979Z,20.54
2018-05-06T08:56:58.724Z,20.91
2018-05-06T08:59:24.480Z,20.89
2018-05-06T09:01:50.240Z,20.76
2018-05-06T09:04:15.976Z,20.81
2018-05-06T09:06:41.731Z,20.92
2018-05-06T09:09:07.457Z,20.97
2018-05-06T09:11:33.203Z,20.12
2018-05-06T09:13:58.948Z,20.52
2018-05-06T09:16:24.704Z,21.36
2018-05-06T09:18:50.444Z,21.83
2018-05-06T09:21:16.220Z,21.84
2018-05-06T09:23:41.961Z,21.70
2018-05-06T09:26:07.725Z,21.09
2018-05-06T09:28:33.475Z,21.69
2018-05-06T09:30:59.268Z,22.32
2018-05-06T09:33:25.009Z,21.52
2018-05-06T09:35:50.751Z,21.87
2018-05-06T09:38:16.519Z,21.92
2018-05-06T09:40:42.261Z,21.41
2018-05-06T09:43:08.016Z,21.54
2018-05-06T09:45:33.761Z,21.90
2018-05-06T09:47:59.503Z,22.03
2018-05-06T09:50:25.254Z,22.26
2018-05-06T09:52:50.995Z,22.19
2018-05-06T09:55:16.768Z,22.35
2018-05-06T09:57:42.508Z,22.27
2018-05-06T10:00:08.273Z,22.62
2018-05-06T10:02:34.036Z,22.93
2018-05-06T10:04:59.791Z,23.13
2018-05-06T10:07:25.547Z,22.67
2018-05-06T10:09:51.288Z,22.45
2018-05-06T10:12:17.044Z,22.53
2018-05-06T10:14:42.795Z,21.93
2018-05-06T10:17:08.552Z,22.78
2018-05-06T10:19:34.317Z,23.06
2018-05-06T10:22:00.069Z,23.05
2018-05-06T10:24:25.822Z,22.72
2018-05-06T10:26:51.579Z,22.32
2018-05-06T10:29:17.323Z,22.61
2018-05-06T10:31:43.067Z,22.76
2018-05-06T10:34:08.808Z,22.85
2018-05-06T10:36:34.556Z,23.16
2018-05-06T10:39:00.303Z,23.43
2018-05-06T10:41:26.057Z,22.70
2018-05-06T10:43:51.816Z,22.36
2018-05-06T10:46:17.558Z,23.40
2018-05-06T10:48:43.326Z,23.25
2018-05-06T10:51:09.067Z,22.96
2018-05-06T10:53:34.828Z,23.18
2018-05-06T10:56:00.590Z,22.56
2018-05-06T10:58:26.331Z,22.45
2018-05-06T11:00:52.085Z,22.95
2018-05-06T11:03:17.836Z,22.71
2018-05-06T11:05:43.584Z,23.54
2018-05-06T11:08:09.333Z,22.83
2018-05-06T11:10:35.084Z,23.00
2018-05-06T11:13:00.831Z,22.61
2018-05-06T11:15:26.582Z,23.82
2018-05-06T11:17:52.417Z,23.25
2018-05-06T11:20:18.081Z,22.29
2018-05-06T11:22:43.831Z,23.34
2018-05-06T11:25:09.572Z,23.38
2018-05-06T11:27:35.341Z,23.59
2018-05-06T11:30:01.096Z,23.70
2018-05-06T11:32:26.848Z,22.86
2018-05-06T11:34:52.591Z,23.27
2018-05-06T11:37:18.332Z,23.75
2018-05-06T11:39:44.089Z,23.47
2018-05-06T11:42:09.828Z,24.46
2018-05-06T11:44:35.575Z,23.90
2018-05-06T11:47:01.324Z,23.78
2018-05-06T11:49:27.101Z,22.98
2018-05-06T11:51:52.839Z,23.09
2018-05-06T11:54:18.589Z,23.00
2018-05-06T11:56:44.332Z,23.50
2018-05-06T11:59:10.090Z,23.66
2018-05-06T12:01:35.834Z,24.19
2018-05-06T12:04:01.568Z,24.10
2018-05-06T12:06:27.308Z,24.60
2018-05-06T12:08:53.064Z,23.64
2018-05-06T12:11:18.800Z,22.76
2018-05-06T12:13:44.555Z,22.79
2018-05-06T12:16:10.299Z,23.41
2018-05-06T12:18:36.052Z,24.11
2018-05-06T12:21:01.818Z,24.99
2018-05-06T12:23:27.584Z,24.13
2018-05-06T12:25:53.323Z,23.45
2018-05-06T12:28:19.078Z,23.91
2018-05-06T12:30:44.816Z,24.11
2018-05-06T12:33:10.577Z,23.31
2018-05-06T12:35:36.304Z,24.40
2018-05-06T12:38:02.043Z,24.18
2018-05-06T12:40:27.780Z,23.43
2018-05-06T12:42:53.528Z,23.21
2018-05-06T12:45:19.289Z,23.51
2018-05-06T12:47:45.028Z,24.17
2018-05-06T12:50:10.772Z,24.79
2018-05-06T12:52:36.524Z,24.40
2018-05-06T12:55:02.279Z,24.55
2018-05-06T12:57:28.021Z,23.62
2018-05-06T12:59:53.777Z,23.25
2018-05-06T13:02:19.614Z,23.98
2018-05-06T13:04:45.291Z,24.49
2018-05-06T13:07:11.037Z,24.16
2018-05-06T13:09:36.768Z,24.04
2018-05-06T13:12:02.503Z,23.75
2018-05-06T13:14:28.261Z,24.58
2018-05-06T13:16:54.000Z,24.02
2018-05-06T13:19:19.747Z,24.07
2018-05-06T13:21:45.487Z,24.23
2018-05-06T13:24:11.299Z,23.29
2018-05-06T13:26:36.997Z,23.25
2018-05-06T13:29:02.752Z,23.96
2018-05-06T13:31:28.495Z,23.61
2018-05-06T13:33:54.254Z,23.62
2018-05-06T13:36:19.983Z,24.18
2018-05-06T13:38:45.727Z,24.27
2018-05-06T13:41:11.477Z,24.23
2018-05-06T13:43:37.229Z,23.01
2018-05-06T13:46:02.973Z,24.03
2018-05-06T13:48:28.753Z,24.76
2018-05-06T13:50:54.479Z,24.32
2018-05-06T13:53:20.220Z,24.27
2018-05-06T13:55:45.955Z,24.08
2018-05-06T13:58:11.723Z,23.89
2018-05-06T14:00:37.477Z,23.58
2018-05-06T14:03:03.221Z,23.93
2018-05-06T14:05:28.986Z,23.22
2018-05-06T14:07:54.727Z,23.48
2018-05-06T14:10:20.476Z,23.82
2018-05-06T14:12:46.220Z,23.39
2018-05-06T14:15:11.977Z,23.63
2018-05-06T14:17:37.726Z,23.41
2018-05-06T14:20:03.484Z,23.19
2018-05-06T14:22:29.215Z,23.00
2018-05-06T14:24:54.961Z,22.88
2018-05-06T14:27:20.692Z,23.08
2018-05-06T14:29:46.439Z,23.18
2018-05-06T14:32:12.179Z,22.86
2018-05-06T14:34:37.925Z,22.47
2018-05-06T14:37:03.685Z,22.99
2018-05-06T14:39:29.518Z,22.65
2018-05-06T14:41:55.181Z,22.67
2018-05-06T14:44:20.948Z,22.60
2018-05-06T14:46:59.096Z,22.69
2018-05-06T14:49:24.854Z,22.59
2018-05-06T14:51:50.595Z,22.60
2018-05-06T14:54:16.347Z,22.53
2018-05-06T14:56:42.162Z,22.55
2018-05-06T14:59:07.909Z,22.65
2018-05-06T15:01:33.653Z,22.92
2018-05-06T15:03:59.405Z,23.03
2018-05-06T15:06:25.152Z,22.85
2018-05-06T15:08:50.889Z,22.61
2018-05-06T15:11:16.633Z,22.59
2018-05-06T15:13:42.380Z,22.68
2018-05-06T15:16:08.124Z,22.64
2018-05-06T15:18:33.861Z,22.59
2018-05-06T15:20:59.618Z,22.60
2018-05-06T15:23:25.365Z,22.52
2018-05-06T15:25:51.113Z,22.44
2018-05-06T15:28:16.852Z,22.52
2018-05-06T15:30:42.621Z,22.56
2018-05-06T15:33:08.371Z,22.61
2018-05-06T15:35:34.100Z,22.75
2018-05-06T15:37:59.847Z,22.53
2018-05-06T15:40:25.587Z,22.51
2018-05-06T15:42:51.343Z,22.38
2018-05-06T15:45:17.072Z,22.39
2018-05-06T15:47:42.819Z,22.35
2018-05-06T15:50:08.665Z,22.24
2018-05-06T15:52:34.351Z,22.14
2018-05-06T15:55:00.077Z,22.04
2018-05-06T15:57:25.820Z,22.14
2018-05-06T15:59:51.580Z,22.20
2018-05-06T16:15:55.411Z,21.98
2018-05-06T16:18:21.177Z,21.96
2018-05-06T16:20:46.914Z,21.95
2018-05-06T16:23:12.669Z,21.72
2018-05-06T16:25:38.510Z,21.84
2018-05-06T16:28:04.173Z,21.68
2018-05-06T16:30:29.916Z,21.53
2018-05-06T16:32:55.683Z,21.50
2018-05-06T16:35:21.442Z,21.49
2018-05-06T16:37:47.225Z,21.36
2018-05-06T16:40:12.984Z,21.43
2018-05-06T16:42:38.744Z,21.37
2018-05-06T16:45:04.504Z,21.37
2018-05-06T16:47:30.259Z,21.28
2018-05-06T16:49:56.011Z,21.26
2018-05-06T16:52:21.748Z,21.12
2018-05-06T16:54:47.501Z,20.97
2018-05-06T16:57:13.233Z,21.10
2018-05-06T16:59:38.996Z,20.94
2018-05-06T17:02:04.724Z,21.09
2018-05-06T17:04:30.821Z,20.79
2018-05-06T17:06:56.797Z,20.69
2018-05-06T17:09:22.553Z,20.66
2018-05-06T17:11:48.299Z,20.88
2018-05-06T17:14:14.040Z,20.57
2018-05-06T17:16:39.780Z,20.44
2018-05-06T17:19:05.539Z,20.34
2018-05-06T17:21:31.276Z,20.40
2018-05-06T17:23:57.036Z,20.34
2018-05-06T17:26:22.767Z,20.33
2018-05-06T17:28:48.512Z,20.29
2018-05-06T17:31:14.272Z,20.10
2018-05-06T17:33:40.007Z,20.07
2018-05-06T17:36:05.748Z,19.99
2018-05-06T17:38:31.499Z,19.93
2018-05-06T17:40:57.249Z,19.84
2018-05-06T17:43:22.981Z,19.80
2018-05-06T17:45:48.740Z,19.73
2018-05-06T17:48:14.482Z,19.59
2018-05-06T17:50:40.225Z,19.48
2018-05-06T17:53:05.956Z,19.46
2018-05-06T17:55:31.736Z,19.40
2018-05-06T17:57:57.465Z,19.36
2018-05-06T18:00:23.260Z,19.26
2018-05-06T18:02:48.995Z,19.14
2018-05-06T18:05:14.754Z,19.11
2018-05-06T18:07:40.484Z,18.96
2018-05-06T18:10:06.237Z,18.83
2018-05-06T18:12:31.983Z,18.72
2018-05-06T18:14:57.751Z,18.63
2018-05-06T18:17:23.488Z,18.51
2018-05-06T18:19:49.223Z,18.48
2018-05-06T18:22:14.977Z,18.38
2018-05-06T18:24:40.734Z,18.24
2018-05-06T18:27:06.460Z,18.13
2018-05-06T18:29:32.187Z,18.08
2018-05-06T18:31:57.942Z,18.00
2018-05-06T18:34:23.677Z,17.91
2018-05-06T18:36:49.428Z,17.82
2018-05-06T18:39:15.159Z,17.69
2018-05-06T18:41:40.912Z,17.62
2018-05-06T18:44:06.640Z,17.44
2018-05-06T18:46:32.385Z,17.33
2018-05-06T18:48:58.103Z,17.29
2018-05-06T18:51:23.869Z,17.21
2018-05-06T18:53:49.603Z,17.02
2018-05-06T18:56:15.342Z,16.91
2018-05-06T18:58:41.095Z,16.81
2018-05-06T19:01:06.839Z,16.74
2018-05-06T19:03:32.577Z,16.77
2018-05-06T19:05:58.316Z,16.79
2018-05-06T19:08:24.085Z,16.82
2018-05-06T19:10:49.811Z,16.75
2018-05-06T19:13:15.555Z,16.50
2018-05-06T19:15:41.283Z,16.32
2018-05-06T19:18:07.033Z,16.41
2018-05-06T19:20:32.768Z,16.49
2018-05-06T19:22:58.516Z,16.37
2018-05-06T19:25:24.258Z,16.30
2018-05-06T19:27:50.003Z,16.08
2018-05-06T19:30:15.740Z,16.04
2018-05-06T19:32:41.521Z,16.05
2018-05-06T19:35:07.249Z,16.04
2018-05-06T19:37:32.984Z,16.03
2018-05-06T19:39:58.733Z,15.96
2018-05-06T19:42:24.502Z,15.77
2018-05-06T19:44:50.213Z,15.72
2018-05-06T19:47:15.941Z,15.70
2018-05-06T19:49:41.700Z,15.81
2018-05-06T19:52:07.440Z,15.81
2018-05-06T19:54:33.184Z,15.75
2018-05-06T19:56:58.920Z,15.67
2018-05-06T19:59:24.681Z,15.33
2018-05-06T20:01:50.425Z,15.46
2018-05-06T20:04:16.172Z,15.35
2018-05-06T20:06:41.963Z,15.19
2018-05-06T20:09:07.735Z,15.18
2018-05-06T20:11:33.477Z,15.30
2018-05-06T20:13:59.268Z,15.29
2018-05-06T20:16:25.041Z,15.34
2018-05-06T20:18:50.776Z,15.20
2018-05-06T20:21:16.517Z,15.12
2018-05-06T20:23:42.245Z,15.13
2018-05-06T20:26:08.023Z,15.07
2018-05-06T20:28:33.767Z,15.02
2018-05-06T20:30:59.508Z,14.90
2018-05-06T20:33:25.240Z,14.83
2018-05-06T20:35:50.984Z,14.62
2018-05-06T20:38:16.745Z,14.67
2018-05-06T20:40:42.480Z,14.60
2018-05-06T20:43:08.207Z,14.70
2018-05-06T20:45:33.962Z,14.61
2018-05-06T20:48:00.117Z,14.54
2018-05-06T20:50:25.929Z,14.52
2018-05-06T20:52:51.664Z,14.48
2018-05-06T20:55:17.435Z,14.48
2018-05-06T20:57:43.164Z,14.31
2018-05-06T21:00:08.960Z,14.29
2018-05-06T21:02:34.708Z,14.33
2018-05-06T21:05:00.432Z,14.26
2018-05-06T21:07:26.176Z,14.18
2018-05-06T21:09:51.924Z,14.18
2018-05-06T21:12:17.681Z,14.08
2018-05-06T21:14:43.512Z,13.99
2018-05-06T21:17:09.245Z,13.94
2018-05-06T21:19:34.991Z,14.00
2018-05-06T21:22:00.732Z,14.01
2018-05-06T21:24:26.624Z,13.99
2018-05-06T21:26:52.424Z,14.01
2018-05-06T21:29:18.168Z,13.93
2018-05-06T21:31:43.916Z,13.87
2018-05-06T21:34:09.636Z,13.87
2018-05-06T21:36:35.382Z,13.84
2018-05-06T21:39:01.235Z,13.77
2018-05-06T21:41:27.240Z,13.67
2018-05-06T21:43:54.257Z,13.60
2018-05-06T21:46:20.021Z,13.59
2018-05-06T21:48:45.756Z,13.48
2018-05-06T21:51:12.473Z,13.49
2018-05-06T21:53:38.229Z,13.40
2018-05-06T21:56:04.667Z,13.23
2018-05-06T21:58:30.428Z,13.19
2018-05-06T22:00:56.175Z,13.22
2018-05-06T22:03:21.921Z,13.21
2018-05-06T22:05:47.653Z,13.19
2018-05-06T22:08:13.388Z,13.08
2018-05-06T22:10:39.149Z,13.05
2018-05-06T22:13:04.895Z,12.91
2018-05-06T22:15:30.625Z,12.89
2018-05-06T22:17:56.371Z,13.04
2018-05-06T22:20:22.091Z,13.12
2018-05-06T22:22:47.825Z,12.98
2018-05-06T22:25:13.553Z,12.85
2018-05-06T22:27:39.305Z,12.74
2018-05-06T22:30:05.043Z,12.87
2018-05-06T22:32:30.783Z,12.83
2018-05-06T22:34:56.530Z,12.87
2018-05-06T22:37:22.272Z,12.73
2018-05-06T22:39:48.009Z,12.72
2018-05-06T22:42:13.752Z,12.72
2018-05-06T22:44:39.499Z,12.68
2018-05-06T22:47:05.227Z,12.58
2018-05-06T22:49:30.965Z,12.42
2018-05-06T22:51:56.695Z,12.39
2018-05-06T22:54:22.436Z,12.35
2018-05-06T22:56:48.164Z,12.44
2018-05-06T22:59:13.921Z,12.37
2018-05-06T23:01:39.660Z,12.30
2018-05-06T23:04:05.404Z,12.19
2018-05-06T23:06:31.153Z,12.30
2018-05-06T23:08:56.920Z,12.32
2018-05-06T23:11:22.666Z,12.34
2018-05-06T23:13:48.412Z,12.26
2018-05-06T23:16:14.247Z,12.18
2018-05-06T23:18:39.929Z,12.12
2018-05-06T23:21:05.668Z,12.02
2018-05-06T23:23:31.396Z,12.08
2018-05-06T23:25:57.137Z,11.93
2018-05-06T23:28:22.872Z,11.93
2018-05-06T23:30:48.672Z,11.88
2018-05-06T23:33:14.411Z,11.76
2018-05-06T23:35:40.221Z,11.81
2018-05-06T23:38:05.906Z,11.76
2018-05-06T23:40:31.656Z,11.85
2018-05-06T23:42:57.403Z,11.81
2018-05-06T23:45:23.147Z,11.90
2018-05-06T23:47:48.893Z,11.91
2018-05-06T23:50:14.648Z,11.81
2018-05-06T23:52:40.388Z,11.66
2018-05-06T23:55:06.136Z,11.72
2018-05-06T23:57:31.876Z,11.71
2018-05-06T23:59:57.661Z,11.71
